createdAt,value
2023-03-16T01:02:43.055Z,357.00
2023-03-16T01:03:43.070Z,357.00
2023-03-16T01:04:43.009Z,359.00
2023-03-16T01:05:42.983Z,359.00
2023-03-16T01:06:42.936Z,359.00
2023-03-16T01:07:42.883Z,360.00
2023-03-16T01:08:42.858Z,363.00
2023-03-16T01:09:42.855Z,364.00
2023-03-16T01:10:42.781Z,366.00
2023-03-16T01:11:42.756Z,361.00
2023-03-16T01:12:42.731Z,361.00
2023-03-16T01:13:42.690Z,360.00
2023-03-16T01:14:42.647Z,359.00
2023-03-16T01:15:42.601Z,359.00
2023-03-16T01:16:42.641Z,359.00
2023-03-16T01:17:42.556Z,358.00
2023-03-16T01:18:42.513Z,357.00
2023-03-16T01:19:42.480Z,358.00
2023-03-16T01:20:42.439Z,358.00
2023-03-16T01:21:42.432Z,360.00
2023-03-16T01:22:42.380Z,362.00
2023-03-16T01:23:42.341Z,361.00
2023-03-16T01:24:42.325Z,360.00
2023-03-16T01:25:42.275Z,360.00
2023-03-16T01:26:42.243Z,362.00
2023-03-16T01:27:42.222Z,364.00
2023-03-16T01:28:42.175Z,363.00
2023-03-16T01:29:42.132Z,361.00
2023-03-16T01:30:42.149Z,359.00
2023-03-16T01:31:42.075Z,358.00
2023-03-16T01:32:42.095Z,358.00
2023-03-16T01:33:42.001Z,357.00
2023-03-16T01:34:41.979Z,359.00
2023-03-16T01:35:41.982Z,359.00
2023-03-16T01:36:41.921Z,360.00
2023-03-16T01:37:41.885Z,361.00
2023-03-16T01:38:41.854Z,361.00
2023-03-16T01:39:41.808Z,360.00
2023-03-16T01:40:41.777Z,359.00
2023-03-16T01:41:41.758Z,359.00
2023-03-16T01:42:41.723Z,358.00
2023-03-16T01:58:41.199Z,359.00
2023-03-16T02:53:39.416Z,358.00
2023-03-16T02:54:39.260Z,358.00
2023-03-16T02:55:39.241Z,358.00
2023-03-16T02:56:39.214Z,359.00
2023-03-16T02:57:39.215Z,357.00
2023-03-16T02:58:39.166Z,357.00
2023-03-16T02:59:39.131Z,356.00
2023-03-16T03:00:39.131Z,355.00
2023-03-16T03:01:39.082Z,353.00
2023-03-16T03:02:39.063Z,354.00
2023-03-16T03:03:39.073Z,354.00
2023-03-16T03:04:39.035Z,353.00
2023-03-16T03:06:38.956Z,352.00
2023-03-16T03:07:38.932Z,352.00
2023-03-16T03:08:38.909Z,354.00
2023-03-16T03:09:38.873Z,355.00
2023-03-16T03:10:38.840Z,356.00
2023-03-16T03:11:38.810Z,356.00
2023-03-16T03:12:38.776Z,356.00
2023-03-16T03:13:38.745Z,355.00
2023-03-16T03:14:38.720Z,355.00
2023-03-16T03:15:38.686Z,357.00
2023-03-16T03:16:38.749Z,356.00
2023-03-16T03:17:38.615Z,356.00
2023-03-16T03:18:38.580Z,358.00
2023-03-16T03:19:38.559Z,357.00
2023-03-16T03:20:38.533Z,357.00
2023-03-16T03:21:38.492Z,357.00
2023-03-16T03:22:38.462Z,358.00
2023-03-16T03:23:38.463Z,358.00
2023-03-16T03:24:38.394Z,356.00
2023-03-16T03:25:38.388Z,357.00
2023-03-16T03:26:38.333Z,356.00
2023-03-16T03:27:38.366Z,351.00
2023-03-16T03:28:38.294Z,352.00
2023-03-16T03:29:38.244Z,355.00
2023-03-16T03:30:38.221Z,355.00
2023-03-16T03:31:38.261Z,353.00
2023-03-16T03:32:38.188Z,354.00
2023-03-16T03:33:38.126Z,355.00
2023-03-16T03:34:38.079Z,358.00
2023-03-16T03:35:38.079Z,357.00
2023-03-16T03:36:38.029Z,358.00
2023-03-16T03:37:37.994Z,359.00
2023-03-16T03:38:37.963Z,358.00
2023-03-16T03:39:37.929Z,359.00
2023-03-16T03:40:37.896Z,358.00
2023-03-16T03:41:37.867Z,359.00
2023-03-16T03:42:37.832Z,356.00
2023-03-16T03:43:37.816Z,354.00
2023-03-16T03:44:37.772Z,352.00
2023-03-16T03:45:37.799Z,354.00
2023-03-16T03:46:37.860Z,353.00
2023-03-16T03:48:37.683Z,355.00
2023-03-16T03:49:37.628Z,353.00
2023-03-16T03:50:37.592Z,352.00
2023-03-16T03:51:37.562Z,351.00
2023-03-16T03:52:37.530Z,351.00
2023-03-16T03:53:37.498Z,351.00
2023-03-16T03:54:37.459Z,352.00
2023-03-16T03:55:37.440Z,353.00
2023-03-16T03:56:37.397Z,353.00
2023-03-16T03:57:37.373Z,354.00
2023-03-16T03:58:37.333Z,357.00
2023-03-16T03:59:37.299Z,358.00
2023-03-16T04:00:37.268Z,358.00
2023-03-16T04:01:37.236Z,358.00
2023-03-16T04:02:37.320Z,357.00
2023-03-16T04:03:37.151Z,355.00
2023-03-16T04:04:37.140Z,356.00
2023-03-16T04:05:37.081Z,357.00
2023-03-16T04:06:37.034Z,361.00
2023-03-16T04:07:37.018Z,361.00
2023-03-16T04:08:36.954Z,361.00
2023-03-16T04:09:36.916Z,362.00
2023-03-16T04:10:36.886Z,364.00
2023-03-16T04:11:36.860Z,363.00
2023-03-16T04:12:36.821Z,362.00
2023-03-16T04:13:36.774Z,362.00
2023-03-16T04:14:36.757Z,362.00
2023-03-16T04:15:36.709Z,362.00
2023-03-16T04:16:36.748Z,361.00
2023-03-16T04:17:36.649Z,360.00
2023-03-16T04:18:38.327Z,360.00
2023-03-16T04:19:36.569Z,358.00
2023-03-16T04:20:36.560Z,360.00
2023-03-16T04:21:36.534Z,359.00
2023-03-16T04:22:36.482Z,361.00
2023-03-16T04:23:36.466Z,360.00
2023-03-16T04:24:36.437Z,361.00
2023-03-16T04:25:36.404Z,361.00
2023-03-16T04:26:36.349Z,360.00
2023-03-16T04:27:36.337Z,361.00
2023-03-16T04:28:36.286Z,359.00
2023-03-16T04:29:36.264Z,358.00
2023-03-16T04:30:36.248Z,358.00
2023-03-16T04:31:36.169Z,358.00
2023-03-16T04:32:36.182Z,357.00
2023-03-16T04:33:36.099Z,357.00
2023-03-16T04:34:36.077Z,357.00
2023-03-16T04:35:36.059Z,357.00
2023-03-16T04:36:35.991Z,358.00
2023-03-16T04:37:35.950Z,355.00
2023-03-16T04:38:35.914Z,356.00
2023-03-16T04:39:35.876Z,357.00
2023-03-16T04:40:35.840Z,356.00
2023-03-16T04:41:35.795Z,355.00
2023-03-16T04:42:35.787Z,355.00
2023-03-16T04:43:35.743Z,357.00
2023-03-16T04:44:35.740Z,359.00
2023-03-16T04:45:35.690Z,358.00
2023-03-16T04:46:35.652Z,358.00
2023-03-16T04:47:35.613Z,358.00
2023-03-16T04:48:35.608Z,359.00
2023-03-16T04:49:35.553Z,356.00
2023-03-16T04:50:35.538Z,357.00
2023-03-16T04:51:35.483Z,358.00
2023-03-16T04:52:35.464Z,357.00
2023-03-16T04:53:35.417Z,358.00
2023-03-16T04:54:35.398Z,357.00
2023-03-16T04:55:35.370Z,357.00
2023-03-16T04:56:35.384Z,357.00
2023-03-16T04:57:35.318Z,358.00
2023-03-16T04:58:35.337Z,357.00
2023-03-16T04:59:35.262Z,353.00
2023-03-16T05:00:35.215Z,351.00
2023-03-16T05:01:35.173Z,351.00
2023-03-16T05:02:35.083Z,350.00
2023-03-16T05:03:35.135Z,353.00
2023-03-16T05:04:35.071Z,352.00
2023-03-16T05:05:35.077Z,350.00
2023-03-16T05:06:34.946Z,350.00
2023-03-16T05:07:34.906Z,353.00
2023-03-16T05:08:34.872Z,355.00
2023-03-16T05:09:34.843Z,354.00
2023-03-16T05:10:34.837Z,354.00
2023-03-16T05:11:34.771Z,353.00
2023-03-16T05:12:34.752Z,352.00
2023-03-16T05:13:34.738Z,353.00
2023-03-16T05:14:34.689Z,354.00
2023-03-16T05:15:34.668Z,352.00
2023-03-16T05:16:34.624Z,353.00
2023-03-16T05:17:34.601Z,353.00
2023-03-16T05:18:34.560Z,353.00
2023-03-16T05:19:34.512Z,353.00
2023-03-16T05:20:34.494Z,354.00
2023-03-16T05:21:34.442Z,353.00
2023-03-16T05:22:34.414Z,354.00
2023-03-16T05:23:34.387Z,355.00
2023-03-16T05:24:34.338Z,354.00
2023-03-16T05:25:34.307Z,353.00
2023-03-16T05:26:34.274Z,354.00
2023-03-16T05:27:34.251Z,353.00
2023-03-16T05:28:34.207Z,353.00
2023-03-16T05:29:34.179Z,354.00
2023-03-16T05:30:34.170Z,355.00
2023-03-16T05:31:34.173Z,354.00
2023-03-16T05:32:34.125Z,354.00
2023-03-16T05:33:34.011Z,353.00
2023-03-16T05:34:33.993Z,353.00
2023-03-16T05:35:34.031Z,355.00
2023-03-16T05:36:33.915Z,357.00
2023-03-16T05:37:33.879Z,356.00
2023-03-16T05:38:33.851Z,358.00
2023-03-16T05:39:33.849Z,359.00
2023-03-16T05:40:33.787Z,358.00
2023-03-16T05:41:33.749Z,358.00
2023-03-16T05:42:33.686Z,358.00
2023-03-16T05:43:33.697Z,358.00
2023-03-16T05:44:33.626Z,358.00
2023-03-16T05:45:33.588Z,359.00
2023-03-16T05:46:33.642Z,358.00
2023-03-16T05:47:33.493Z,356.00
2023-03-16T05:48:33.461Z,353.00
2023-03-16T05:49:33.411Z,352.00
2023-03-16T05:50:33.375Z,351.00
2023-03-16T05:51:33.330Z,357.00
2023-03-16T05:52:33.294Z,357.00
2023-03-16T05:53:33.257Z,358.00
2023-03-16T05:54:33.225Z,357.00
2023-03-16T05:55:33.196Z,357.00
2023-03-16T05:56:33.160Z,359.00
2023-03-16T05:57:33.099Z,358.00
2023-03-16T05:58:33.065Z,359.00
2023-03-16T05:59:33.034Z,359.00
2023-03-16T06:00:33.002Z,359.00
2023-03-16T06:01:32.952Z,358.00
2023-03-16T06:02:32.932Z,359.00
2023-03-16T06:03:32.866Z,358.00
2023-03-16T06:04:32.885Z,356.00
2023-03-16T06:05:32.803Z,355.00
2023-03-16T06:06:32.767Z,354.00
2023-03-16T06:07:32.737Z,355.00
2023-03-16T06:08:32.767Z,354.00
2023-03-16T06:09:32.678Z,353.00
2023-03-16T06:10:32.660Z,356.00
2023-03-16T06:11:32.616Z,357.00
2023-03-16T06:12:32.576Z,360.00
2023-03-16T06:13:32.527Z,362.00
2023-03-16T06:14:32.509Z,363.00
2023-03-16T06:15:32.445Z,362.00
2023-03-16T06:16:32.496Z,362.00
2023-03-16T06:17:32.377Z,359.00
2023-03-16T06:18:32.329Z,359.00
2023-03-16T06:19:32.289Z,359.00
2023-03-16T06:20:32.244Z,359.00
2023-03-16T06:21:32.235Z,358.00
2023-03-16T06:22:32.190Z,358.00
2023-03-16T06:23:32.127Z,360.00
2023-03-16T06:24:32.099Z,358.00
2023-03-16T06:25:32.055Z,357.00
2023-03-16T06:26:32.068Z,357.00
2023-03-16T06:27:32.024Z,356.00
2023-03-16T06:28:31.962Z,356.00
2023-03-16T06:29:31.888Z,355.00
2023-03-16T06:30:31.861Z,355.00
2023-03-16T06:31:31.926Z,366.00
2023-03-16T06:32:31.886Z,400.00
2023-03-16T06:33:31.748Z,404.00
2023-03-16T06:34:31.712Z,494.00
2023-03-16T06:47:31.200Z,594.00
2023-03-16T06:48:31.273Z,701.00
2023-03-16T06:49:31.217Z,732.00
2023-03-16T06:50:31.121Z,766.00
2023-03-16T06:51:31.079Z,770.00
2023-03-16T06:52:30.981Z,792.00
2023-03-16T06:53:30.992Z,828.00
2023-03-16T06:54:30.920Z,862.00
2023-03-16T06:55:30.873Z,872.00
2023-03-16T06:56:30.839Z,894.00
2023-03-16T06:57:30.783Z,906.00
2023-03-16T06:58:30.761Z,926.00
2023-03-16T06:59:30.707Z,1001.00
2023-03-16T07:00:30.823Z,1011.00
2023-03-16T07:01:30.747Z,1027.00
2023-03-16T07:02:30.598Z,1077.00
2023-03-16T07:03:30.556Z,1088.00
2023-03-16T07:04:30.542Z,1111.00
2023-03-16T07:05:30.435Z,1124.00
2023-03-16T07:06:30.420Z,1152.00
2023-03-16T07:07:30.335Z,1168.00
2023-03-16T07:08:30.304Z,1190.00
2023-03-16T07:10:30.582Z,1259.00
2023-03-16T07:11:31.009Z,1277.00
2023-03-16T07:12:30.106Z,1330.00
2023-03-16T07:13:30.053Z,1347.00
2023-03-16T07:14:30.051Z,1359.00
2023-03-16T07:15:29.970Z,1372.00
2023-03-16T07:16:29.980Z,1435.00
2023-03-16T07:17:29.889Z,1428.00
2023-03-16T07:18:29.826Z,1443.00
2023-03-16T07:19:29.812Z,1471.00
2023-03-16T07:20:30.219Z,1498.00
2023-03-16T07:21:29.716Z,1531.00
2023-03-16T07:22:29.700Z,1546.00
2023-03-16T07:23:29.617Z,1569.00
2023-03-16T07:24:29.675Z,1588.00
2023-03-16T07:25:29.530Z,1608.00
2023-03-16T07:26:29.494Z,1656.00
2023-03-16T07:27:29.428Z,1657.00
2023-03-16T07:28:29.386Z,1663.00
2023-03-16T07:29:29.327Z,1671.00
2023-03-16T07:30:29.779Z,1681.00
2023-03-16T07:31:29.226Z,1730.00
2023-03-16T07:32:29.223Z,1751.00
2023-03-16T07:33:29.101Z,1775.00
2023-03-16T07:34:29.052Z,1833.00
2023-03-16T07:35:29.017Z,1838.00
2023-03-16T07:36:28.925Z,1847.00
2023-03-16T07:37:29.575Z,1892.00
2023-03-16T07:38:28.762Z,1893.00
2023-03-16T07:39:28.675Z,1900.00
2023-03-16T07:40:28.826Z,1949.00
2023-03-16T07:41:28.981Z,1889.00
2023-03-16T07:42:28.435Z,1981.00
2023-03-16T07:43:28.336Z,1937.00
2023-03-16T07:44:28.230Z,1249.00
2023-03-16T07:45:28.371Z,670.00
2023-03-16T07:46:28.147Z,707.00
2023-03-16T07:47:27.999Z,750.00
2023-03-16T07:48:27.970Z,782.00
2023-03-16T07:49:27.833Z,807.00
2023-03-16T07:50:27.941Z,974.00
2023-03-16T07:51:27.687Z,1040.00
2023-03-16T07:52:27.588Z,1063.00
2023-03-16T07:53:27.517Z,1077.00
2023-03-16T07:54:27.421Z,1084.00
2023-03-16T07:55:27.358Z,1098.00
2023-03-16T07:56:31.541Z,1133.00
2023-03-16T07:57:28.207Z,1155.00
2023-03-16T07:58:27.148Z,1178.00
2023-03-16T07:59:27.114Z,1203.00
2023-03-16T08:00:28.040Z,1216.00
2023-03-16T08:01:26.912Z,1282.00
2023-03-16T08:02:27.036Z,1292.00
2023-03-16T08:03:26.834Z,1304.00
2023-03-16T08:04:26.718Z,1313.00
2023-03-16T08:05:27.872Z,1330.00
2023-03-16T08:06:26.617Z,1360.00
2023-03-16T08:07:26.546Z,1373.00
2023-03-16T08:08:26.465Z,1395.00
2023-03-16T08:09:26.413Z,1415.00
2023-03-16T08:10:26.730Z,1437.00
2023-03-16T08:11:26.348Z,1453.00
2023-03-16T08:12:26.249Z,1491.00
2023-03-16T08:13:26.204Z,1510.00
2023-03-16T08:14:26.188Z,1520.00
2023-03-16T08:15:26.075Z,1528.00
2023-03-16T08:16:26.084Z,1542.00
2023-03-16T08:17:25.980Z,1557.00
2023-03-16T08:18:25.867Z,1568.00
2023-03-16T08:19:25.818Z,1592.00
2023-03-16T08:20:25.782Z,1608.00
2023-03-16T08:21:25.762Z,1622.00
2023-03-16T08:22:25.645Z,1633.00
2023-03-16T08:23:25.626Z,1636.00
2023-03-16T08:24:25.540Z,1710.00
2023-03-16T08:25:25.584Z,1712.00
2023-03-16T08:26:25.525Z,1720.00
2023-03-16T08:27:25.355Z,1747.00
2023-03-16T08:28:25.286Z,1786.00
2023-03-16T08:29:26.090Z,1751.00
2023-03-16T08:30:25.504Z,1780.00
2023-03-16T08:31:25.260Z,1789.00
2023-03-16T08:32:25.141Z,1811.00
2023-03-16T08:33:25.048Z,1908.00
2023-03-16T08:34:24.997Z,1617.00
2023-03-16T08:35:24.989Z,1383.00
2023-03-16T08:36:24.870Z,1496.00
2023-03-16T08:37:24.804Z,1477.00
2023-03-16T08:38:24.755Z,1460.00
2023-03-16T08:39:24.691Z,1440.00
2023-03-16T08:40:24.625Z,1423.00
2023-03-16T08:41:24.577Z,1416.00
2023-03-16T08:42:24.527Z,1411.00
2023-03-16T08:43:24.516Z,922.00
2023-03-16T08:44:24.519Z,1320.00
2023-03-16T08:45:24.375Z,1362.00
2023-03-16T08:46:24.391Z,1349.00
2023-03-16T08:47:24.240Z,1017.00
2023-03-16T08:48:24.198Z,866.00
2023-03-16T08:49:24.212Z,877.00
2023-03-16T08:50:24.107Z,863.00
2023-03-16T08:51:24.080Z,784.00
2023-03-16T08:52:24.145Z,776.00
2023-03-16T08:53:24.041Z,794.00
2023-03-16T08:54:23.942Z,763.00
2023-03-16T08:55:23.909Z,696.00
2023-03-16T08:56:23.895Z,699.00
2023-03-16T08:57:23.845Z,678.00
2023-03-16T08:58:23.799Z,697.00
2023-03-16T08:59:30.060Z,673.00
2023-03-16T09:00:24.892Z,657.00
2023-03-16T09:01:23.754Z,688.00
2023-03-16T09:02:23.743Z,596.00
2023-03-16T09:03:23.712Z,656.00
2023-03-16T09:04:23.774Z,605.00
2023-03-16T09:05:23.650Z,624.00
2023-03-16T09:06:23.606Z,616.00
2023-03-16T09:07:23.683Z,604.00
2023-03-16T09:08:23.515Z,578.00
2023-03-16T09:09:23.538Z,534.00
2023-03-16T09:10:23.604Z,541.00
2023-03-16T09:11:23.473Z,514.00
2023-03-16T09:12:23.429Z,480.00
2023-03-16T09:13:23.387Z,404.00
2023-03-16T09:14:23.355Z,424.00
2023-03-16T09:15:23.330Z,550.00
2023-03-16T09:16:23.364Z,587.00
2023-03-16T09:17:23.319Z,610.00
2023-03-16T09:18:23.324Z,719.00
2023-03-16T09:19:23.296Z,768.00
2023-03-16T09:20:26.792Z,733.00
2023-03-16T09:21:24.191Z,770.00
2023-03-16T09:22:23.213Z,802.00
2023-03-16T09:23:23.134Z,830.00
2023-03-16T09:24:23.107Z,834.00
2023-03-16T09:25:23.101Z,929.00
2023-03-16T09:26:23.228Z,913.00
2023-03-16T09:27:23.121Z,915.00
2023-03-16T09:28:22.970Z,974.00
2023-03-16T09:29:23.074Z,970.00
2023-03-16T09:30:22.869Z,981.00
2023-03-16T09:31:22.922Z,1029.00
2023-03-16T09:32:22.796Z,1009.00
2023-03-16T09:33:22.778Z,1004.00
2023-03-16T09:34:22.726Z,963.00
2023-03-16T09:35:22.700Z,964.00
2023-03-16T09:36:22.628Z,968.00
2023-03-16T09:37:23.566Z,972.00
2023-03-16T09:38:22.543Z,973.00
2023-03-16T09:39:22.502Z,972.00
2023-03-16T09:40:22.669Z,968.00
2023-03-16T09:41:22.464Z,961.00
2023-03-16T09:42:22.363Z,957.00
2023-03-16T09:43:22.332Z,950.00
2023-03-16T09:44:22.638Z,946.00
2023-03-16T09:45:22.260Z,941.00
2023-03-16T09:46:22.212Z,935.00
2023-03-16T09:47:22.131Z,928.00
2023-03-16T09:48:22.102Z,919.00
2023-03-16T09:49:22.100Z,914.00
2023-03-16T09:50:22.017Z,911.00
2023-03-16T09:51:22.007Z,911.00
2023-03-16T09:52:21.896Z,982.00
2023-03-16T09:53:21.832Z,984.00
2023-03-16T09:54:21.807Z,994.00
2023-03-16T09:55:21.756Z,991.00
2023-03-16T09:56:21.728Z,966.00
2023-03-16T09:57:21.681Z,851.00
2023-03-16T11:50:16.309Z,730.00
2023-03-16T11:53:16.553Z,731.00
2023-03-16T11:54:16.112Z,724.00
2023-03-16T11:55:16.055Z,712.00
2023-03-16T11:56:15.997Z,708.00
2023-03-16T11:57:15.976Z,711.00
2023-03-16T11:58:15.902Z,712.00
2023-03-16T11:59:15.877Z,718.00
2023-03-16T12:00:15.901Z,722.00
2023-03-16T12:01:15.787Z,722.00
2023-03-16T12:02:15.719Z,722.00
2023-03-16T12:03:15.686Z,725.00
2023-03-16T12:04:15.621Z,726.00
2023-03-16T12:05:15.538Z,729.00
2023-03-16T12:06:23.013Z,732.00
2023-03-16T12:08:15.422Z,736.00
2023-03-16T12:09:15.420Z,735.00
2023-03-16T12:10:15.303Z,737.00
2023-03-16T12:11:15.249Z,737.00
2023-03-16T12:12:15.167Z,743.00
2023-03-16T12:13:15.144Z,747.00
2023-03-16T12:14:15.110Z,751.00
2023-03-16T12:15:15.026Z,750.00
2023-03-16T12:16:15.012Z,752.00
2023-03-16T12:17:14.941Z,748.00
2023-03-16T12:18:14.908Z,740.00
2023-03-16T12:19:14.857Z,747.00
2023-03-16T12:20:14.873Z,756.00
2023-03-16T12:21:14.791Z,759.00
2023-03-16T12:22:15.680Z,760.00
2023-03-16T12:23:14.646Z,759.00
2023-03-16T12:24:14.614Z,758.00
2023-03-16T12:25:14.576Z,761.00
2023-03-16T12:26:14.559Z,762.00
2023-03-16T12:27:14.477Z,763.00
2023-03-16T12:28:14.439Z,754.00
2023-03-16T12:29:14.417Z,737.00
2023-03-16T12:30:14.403Z,733.00
2023-03-16T12:31:14.328Z,733.00
2023-03-16T12:32:14.249Z,733.00
2023-03-16T12:33:14.182Z,733.00
2023-03-16T12:34:14.145Z,731.00
2023-03-16T12:35:14.082Z,728.00
2023-03-16T12:36:14.050Z,727.00
2023-03-16T12:37:13.981Z,726.00
2023-03-16T12:38:13.949Z,723.00
2023-03-16T12:39:13.885Z,724.00
2023-03-16T12:40:13.941Z,727.00
2023-03-16T12:41:15.988Z,728.00
2023-03-16T12:42:13.754Z,729.00
2023-03-16T12:43:13.695Z,732.00
2023-03-16T12:44:13.746Z,733.00
2023-03-16T12:45:13.600Z,734.00
2023-03-16T12:46:13.600Z,735.00
2023-03-16T12:47:13.514Z,731.00
2023-03-16T12:48:13.466Z,730.00
2023-03-16T12:49:13.387Z,732.00
2023-03-16T12:50:13.366Z,734.00
2023-03-16T12:51:13.283Z,736.00
2023-03-16T12:52:13.239Z,733.00
2023-03-16T12:53:13.165Z,732.00
2023-03-16T12:54:13.132Z,731.00
2023-03-16T12:55:13.071Z,731.00
2023-03-16T12:56:13.040Z,733.00
2023-03-16T12:57:12.982Z,732.00
2023-03-16T12:58:12.939Z,731.00
2023-03-16T12:59:12.867Z,730.00
2023-03-16T13:00:12.849Z,730.00
2023-03-16T13:01:12.846Z,728.00
2023-03-16T13:02:12.723Z,725.00
2023-03-16T13:03:12.662Z,724.00
2023-03-16T13:04:12.682Z,725.00
2023-03-16T13:05:12.563Z,723.00
2023-03-16T13:06:12.529Z,726.00
2023-03-16T13:07:12.446Z,728.00
2023-03-16T13:08:12.405Z,725.00
2023-03-16T13:09:12.344Z,726.00
2023-03-16T13:10:12.408Z,723.00
2023-03-16T13:11:12.247Z,724.00
2023-03-16T13:12:14.709Z,723.00
2023-03-16T13:13:12.269Z,724.00
2023-03-16T13:14:12.209Z,726.00
2023-03-16T13:15:12.147Z,723.00
2023-03-16T13:16:12.166Z,723.00
2023-03-16T13:17:12.088Z,721.00
2023-03-16T13:18:11.980Z,725.00
2023-03-16T13:19:11.937Z,726.00
2023-03-16T13:20:13.742Z,727.00
2023-03-16T13:21:12.826Z,728.00
2023-03-16T13:22:11.782Z,725.00
2023-03-16T13:23:11.715Z,722.00
2023-03-16T13:46:46.565Z,718.00
2023-03-16T13:47:46.576Z,710.00
2023-03-16T13:48:46.571Z,708.00
2023-03-16T13:49:46.571Z,709.00
2023-03-16T13:50:46.556Z,708.00
2023-03-16T13:51:46.558Z,711.00
2023-03-16T13:52:46.545Z,715.00
2023-03-16T13:53:46.564Z,716.00
2023-03-16T13:54:46.532Z,712.00
2023-03-16T13:55:46.534Z,710.00
2023-03-16T13:56:46.621Z,707.00
2023-03-16T13:57:46.573Z,709.00
2023-03-16T13:58:46.565Z,710.00
2023-03-16T13:59:46.575Z,711.00
2023-03-16T14:00:46.564Z,713.00
2023-03-16T14:01:46.570Z,714.00
2023-03-16T14:02:46.596Z,712.00
2023-03-16T14:03:46.580Z,713.00
2023-03-16T14:04:46.578Z,710.00
2023-03-16T14:05:46.581Z,712.00
2023-03-16T14:06:46.581Z,712.00
2023-03-16T14:07:46.555Z,710.00
2023-03-16T14:08:46.555Z,712.00
2023-03-16T14:09:46.560Z,710.00
2023-03-16T14:10:46.557Z,708.00
2023-03-16T14:11:46.559Z,709.00
2023-03-16T14:12:46.561Z,708.00
2023-03-16T14:13:46.563Z,711.00
2023-03-16T14:14:46.568Z,708.00
2023-03-16T14:15:46.585Z,705.00
2023-03-16T14:16:46.562Z,706.00
2023-03-16T14:17:46.565Z,705.00
2023-03-16T14:18:46.580Z,704.00
2023-03-16T14:19:46.580Z,703.00
2023-03-16T14:20:46.572Z,703.00
2023-03-16T14:21:46.578Z,705.00
2023-03-16T14:22:46.570Z,704.00
2023-03-16T14:23:46.574Z,705.00
2023-03-16T14:24:46.582Z,704.00
2023-03-16T14:25:46.572Z,705.00
2023-03-16T14:26:46.595Z,707.00
2023-03-16T14:27:46.575Z,707.00
2023-03-16T14:28:46.586Z,706.00
2023-03-16T14:29:46.592Z,705.00
2023-03-16T14:30:47.278Z,702.00
2023-03-16T14:31:46.601Z,702.00
2023-03-16T14:32:46.623Z,699.00
2023-03-16T14:33:47.248Z,698.00
2023-03-16T14:34:46.593Z,695.00
2023-03-16T14:35:46.623Z,694.00
2023-03-16T14:36:46.596Z,693.00
2023-03-16T14:37:46.597Z,691.00
2023-03-16T14:38:46.602Z,692.00
2023-03-16T14:39:46.607Z,689.00
2023-03-16T14:40:46.607Z,689.00
2023-03-16T14:41:46.606Z,690.00
2023-03-16T14:42:46.578Z,690.00
2023-03-16T14:43:46.615Z,692.00
2023-03-16T14:44:46.584Z,694.00
2023-03-16T14:45:46.685Z,692.00
2023-03-16T14:46:46.577Z,689.00
2023-03-16T14:47:46.582Z,694.00
2023-03-16T14:48:46.606Z,697.00
2023-03-16T14:49:46.618Z,699.00
2023-03-16T14:50:46.567Z,700.00
2023-03-16T14:51:46.585Z,699.00
2023-03-16T14:52:46.559Z,696.00
2023-03-16T14:53:46.565Z,695.00
2023-03-16T14:54:46.561Z,693.00
2023-03-16T14:55:46.560Z,696.00
2023-03-16T14:56:46.566Z,695.00
2023-03-16T14:57:46.561Z,693.00
2023-03-16T14:58:46.552Z,695.00
2023-03-16T14:59:46.563Z,691.00
2023-03-16T15:00:53.056Z,687.00
2023-03-16T15:01:47.581Z,683.00
2023-03-16T15:02:47.261Z,680.00
2023-03-16T15:03:46.539Z,680.00
2023-03-16T15:04:46.545Z,684.00
2023-03-16T15:05:46.545Z,684.00
2023-03-16T15:06:46.530Z,686.00
2023-03-16T15:07:46.551Z,689.00
2023-03-16T15:08:46.515Z,688.00
2023-03-16T15:09:46.520Z,685.00
2023-03-16T15:10:46.512Z,684.00
2023-03-16T15:11:46.523Z,683.00
2023-03-16T15:12:46.535Z,680.00
2023-03-16T15:13:47.147Z,678.00
2023-03-16T15:14:46.527Z,680.00
2023-03-16T15:15:46.554Z,678.00
2023-03-16T15:16:46.547Z,678.00
2023-03-16T15:17:46.539Z,681.00
2023-03-16T15:18:46.533Z,678.00
2023-03-16T15:19:46.561Z,674.00
2023-03-16T15:20:46.523Z,674.00
2023-03-16T15:21:46.528Z,674.00
2023-03-16T15:22:46.516Z,671.00
2023-03-16T15:23:46.529Z,671.00
2023-03-16T15:24:46.904Z,670.00
2023-03-16T15:25:46.539Z,668.00
2023-03-16T15:26:46.531Z,667.00
2023-03-16T15:27:46.540Z,668.00
2023-03-16T15:28:46.548Z,667.00
2023-03-16T15:29:46.541Z,669.00
2023-03-16T15:30:46.546Z,668.00
2023-03-16T15:31:46.593Z,673.00
2023-03-16T15:32:46.636Z,673.00
2023-03-16T15:33:46.549Z,675.00
2023-03-16T15:34:46.604Z,674.00
2023-03-16T15:35:46.612Z,671.00
2023-03-16T15:36:46.570Z,669.00
2023-03-16T15:37:46.559Z,669.00
2023-03-16T15:38:46.569Z,669.00
2023-03-16T15:39:46.552Z,670.00
2023-03-16T15:40:46.553Z,670.00
2023-03-16T15:41:48.061Z,671.00
2023-03-16T15:42:47.058Z,668.00
2023-03-16T15:43:46.562Z,668.00
2023-03-16T15:44:46.559Z,667.00
2023-03-16T15:57:46.542Z,655.00
2023-03-16T16:28:46.709Z,664.00
2023-03-16T16:29:46.725Z,665.00
2023-03-16T16:30:46.746Z,666.00
2023-03-16T16:31:46.797Z,664.00
2023-03-16T16:32:46.791Z,663.00
2023-03-16T16:33:46.763Z,663.00
2023-03-16T16:35:01.751Z,661.00
2023-03-16T16:35:47.830Z,660.00
2023-03-16T16:36:46.777Z,661.00
2023-03-16T16:37:46.773Z,661.00
2023-03-16T16:38:46.774Z,660.00
2023-03-16T16:39:46.797Z,659.00
2023-03-16T16:40:46.812Z,657.00
2023-03-16T16:41:46.816Z,653.00
2023-03-16T16:42:46.817Z,653.00
2023-03-16T16:43:46.819Z,652.00
2023-03-16T16:44:46.844Z,650.00
2023-03-16T16:45:46.918Z,646.00
2023-03-16T16:46:46.871Z,645.00
2023-03-16T16:47:46.858Z,647.00
2023-03-16T16:48:46.868Z,648.00
2023-03-16T16:49:46.872Z,648.00
2023-03-16T16:50:46.879Z,650.00
2023-03-16T16:51:46.882Z,653.00
2023-03-16T16:52:46.870Z,651.00
2023-03-16T16:53:46.868Z,649.00
2023-03-16T16:54:46.874Z,648.00
2023-03-16T16:55:46.897Z,648.00
2023-03-16T16:56:46.884Z,648.00
2023-03-16T16:57:46.895Z,647.00
2023-03-16T16:58:46.912Z,644.00
2023-03-16T16:59:46.908Z,644.00
2023-03-16T17:00:46.906Z,645.00
2023-03-16T17:01:46.915Z,647.00
2023-03-16T17:02:46.890Z,647.00
2023-03-16T17:03:46.912Z,649.00
2023-03-16T17:04:46.966Z,649.00
2023-03-16T17:05:46.902Z,646.00
2023-03-16T17:06:46.919Z,646.00
2023-03-16T17:07:46.933Z,647.00
2023-03-16T17:08:46.936Z,645.00
2023-03-16T17:09:46.943Z,643.00
2023-03-16T17:10:46.941Z,645.00
2023-03-16T17:11:46.964Z,644.00
2023-03-16T17:12:46.962Z,645.00
2023-03-16T17:13:46.980Z,642.00
2023-03-16T17:14:46.975Z,638.00
2023-03-16T17:15:47.029Z,639.00
2023-03-16T17:16:47.124Z,639.00
2023-03-16T17:17:47.014Z,636.00
2023-03-16T17:18:47.012Z,635.00
2023-03-16T17:19:47.069Z,633.00
2023-03-16T17:20:47.028Z,632.00
2023-03-16T17:21:47.050Z,634.00
2023-03-16T17:22:47.049Z,635.00
2023-03-16T17:23:47.045Z,636.00
2023-03-16T17:24:47.060Z,635.00
2023-03-16T17:25:47.075Z,634.00
2023-03-16T17:26:47.084Z,631.00
2023-03-16T17:27:47.060Z,631.00
2023-03-16T17:28:47.067Z,631.00
2023-03-16T17:29:47.073Z,632.00
2023-03-16T17:30:47.093Z,632.00
2023-03-16T17:31:47.083Z,634.00
2023-03-16T17:32:47.094Z,634.00
2023-03-16T17:33:47.085Z,632.00
2023-03-16T17:34:47.081Z,636.00
2023-03-16T17:35:47.109Z,635.00
2023-03-16T17:36:47.102Z,635.00
2023-03-16T17:37:47.118Z,635.00
2023-03-16T17:38:47.157Z,632.00
2023-03-16T17:39:47.138Z,633.00
2023-03-16T17:40:47.130Z,634.00
2023-03-16T17:41:47.140Z,634.00
2023-03-16T17:42:47.142Z,635.00
2023-03-16T17:43:47.162Z,634.00
2023-03-16T17:44:47.157Z,635.00
2023-03-16T17:45:47.178Z,634.00
2023-03-16T17:46:47.174Z,634.00
2023-03-16T17:47:47.173Z,632.00
2023-03-16T17:48:47.181Z,630.00
2023-03-16T17:49:47.179Z,630.00
2023-03-16T17:50:47.222Z,630.00